Terminal Aerodrome Forecast
Issued by NWS

Home | Current Version | Previous Version | Text Only | Print | Product List | Glossary On
Versions: 1 2 3 4 5 6 7 8 9 10 11 12
908
FTUS42 TJSJ 101725 CCA
TAFNCM
TAF COR
TNCM 101725Z 1018/1118 13012KT P6SM SCT020
     FM102300 10010KT P6SM FEW018 FEW030
     FM111300 12013KT P6SM FEW018 SCT025=

USA.gov is the U.S. government's official web portal to all federal, state and local government web resources and services.